createdAt,value
2022-10-10T00:05:30.978Z,100533.85
2022-10-10T00:15:36.748Z,100515.16
2022-10-10T00:25:42.372Z,100501.17
2022-10-10T00:35:48.882Z,100496.80
2022-10-10T00:45:54.938Z,100492.02
2022-10-10T00:56:01.077Z,100495.20
2022-10-10T01:06:07.664Z,100500.20
2022-10-10T01:16:21.174Z,100499.02
2022-10-10T01:27:00.091Z,100492.60
2022-10-10T01:37:14.939Z,100490.91
2022-10-10T01:47:20.639Z,100489.86
2022-10-10T01:57:32.629Z,100473.45
2022-10-10T02:07:42.768Z,100458.67
2022-10-10T02:17:51.751Z,100460.68
2022-10-10T02:28:06.732Z,100463.20
2022-10-10T02:38:16.518Z,100455.30
2022-10-10T02:48:22.321Z,100450.24
2022-10-10T02:58:27.916Z,100455.79
2022-10-10T03:08:33.589Z,100452.78
2022-10-10T03:18:39.408Z,100442.14
2022-10-10T03:28:45.063Z,100421.02
2022-10-10T03:38:50.815Z,100410.67
2022-10-10T03:48:56.707Z,100403.29
2022-10-10T03:59:03.899Z,100405.89
2022-10-10T04:09:09.568Z,100396.46
2022-10-10T04:19:15.274Z,100401.29
2022-10-10T04:29:21.066Z,100392.52
2022-10-10T04:39:26.835Z,100382.02
2022-10-10T04:49:32.434Z,100377.33
2022-10-10T04:59:38.036Z,100375.60
2022-10-10T05:09:43.643Z,100364.73
2022-10-10T05:19:49.201Z,100356.25
2022-10-10T05:29:55.652Z,100350.84
2022-10-10T05:40:01.210Z,100348.17
2022-10-10T05:50:09.147Z,100352.45
2022-10-10T06:00:16.391Z,100352.18
2022-10-10T06:10:22.103Z,100351.63
2022-10-10T06:20:27.906Z,100350.02
2022-10-10T06:30:34.838Z,100346.96
2022-10-10T06:40:40.812Z,100348.52
2022-10-10T06:50:56.020Z,100339.78
2022-10-10T07:01:05.242Z,100330.93
2022-10-10T07:11:11.972Z,100325.23
2022-10-10T07:21:16.432Z,100320.40
2022-10-10T07:31:22.230Z,100317.67
2022-10-10T07:41:28.038Z,100303.86
2022-10-10T07:51:33.704Z,100302.88
2022-10-10T08:01:39.391Z,100296.34
2022-10-10T08:11:45.075Z,100287.55
2022-10-10T08:21:50.759Z,100282.45
2022-10-10T08:31:56.324Z,100278.67
2022-10-10T08:42:03.780Z,100269.70
2022-10-10T08:52:13.444Z,100269.36
2022-10-10T09:02:55.568Z,100257.17
2022-10-10T09:13:12.829Z,100256.64
2022-10-10T09:23:26.298Z,100249.95
2022-10-10T09:33:37.035Z,100245.04
2022-10-10T09:43:43.941Z,100235.06
2022-10-10T09:53:50.633Z,100215.85
2022-10-10T10:04:28.399Z,100209.88
2022-10-10T10:14:39.448Z,100207.98
2022-10-10T10:24:45.087Z,100198.34
2022-10-10T10:35:11.792Z,100184.40
2022-10-10T10:45:24.924Z,100166.32
2022-10-10T10:55:40.464Z,100156.97
2022-10-10T11:05:51.859Z,100135.91
2022-10-10T11:16:06.405Z,100121.33
2022-10-10T11:26:19.622Z,100108.48
2022-10-10T11:36:29.294Z,100096.15
2022-10-10T11:46:42.979Z,100081.63
2022-10-10T11:56:50.484Z,100065.84
2022-10-10T12:07:03.710Z,100054.02
2022-10-10T12:17:22.657Z,100036.34
2022-10-10T12:27:45.307Z,100030.17
2022-10-10T12:38:15.297Z,100014.17
2022-10-10T12:48:23.391Z,100005.54
2022-10-10T12:58:32.233Z,99986.58
2022-10-10T13:08:41.627Z,99972.60
2022-10-10T13:18:52.443Z,99962.69
2022-10-10T13:29:02.014Z,99947.16
2022-10-10T13:39:08.031Z,99936.23
2022-10-10T13:49:25.768Z,99918.02
2022-10-10T13:59:32.042Z,99903.70
2022-10-10T14:09:42.465Z,99891.80
2022-10-10T14:19:49.463Z,99884.77
2022-10-10T14:29:56.614Z,99873.47
2022-10-10T14:40:03.049Z,99865.70
2022-10-10T14:50:17.767Z,99857.59
2022-10-10T15:00:26.568Z,99846.04
2022-10-10T15:10:34.042Z,99840.34
2022-10-10T15:20:40.125Z,99838.59
2022-10-10T15:30:48.112Z,99839.58
2022-10-10T15:41:01.218Z,99828.88
2022-10-10T15:51:09.720Z,99828.39
2022-10-10T16:01:18.000Z,99824.70
2022-10-10T16:11:25.522Z,99818.91
2022-10-10T16:21:33.487Z,99813.61
2022-10-10T16:31:40.062Z,99811.18
2022-10-10T16:41:48.457Z,99804.16
2022-10-10T16:51:54.657Z,99792.42
2022-10-10T17:02:00.309Z,99787.93
2022-10-10T17:12:06.478Z,99784.48
2022-10-10T17:22:12.329Z,99780.94
2022-10-10T17:32:18.355Z,99774.35
2022-10-10T17:42:24.090Z,99769.05
2022-10-10T17:52:30.074Z,99765.88
2022-10-10T18:02:35.738Z,99762.73
2022-10-10T18:12:41.409Z,99759.18
2022-10-10T18:22:47.244Z,99753.36
2022-10-10T18:32:52.960Z,99753.77
2022-10-10T18:42:58.707Z,99753.30
2022-10-10T18:53:04.525Z,99739.16
2022-10-10T19:03:10.619Z,99734.31
2022-10-10T19:13:16.701Z,99736.90
2022-10-10T19:23:25.742Z,99732.62
2022-10-10T19:33:31.737Z,99729.34
2022-10-10T19:43:37.508Z,99727.73
2022-10-10T19:53:44.347Z,99722.90
2022-10-10T20:03:50.563Z,99720.68
2022-10-10T20:13:57.516Z,99718.77
2022-10-10T20:24:06.050Z,99713.85
2022-10-10T20:34:12.325Z,99712.55
2022-10-10T20:44:18.429Z,99710.01
2022-10-10T20:54:25.714Z,99705.88
2022-10-10T21:04:31.429Z,99708.14
2022-10-10T21:14:37.275Z,99708.95
2022-10-10T21:24:43.073Z,99707.79
2022-10-10T21:34:51.951Z,99713.64
2022-10-10T21:45:00.128Z,99711.18
2022-10-10T21:55:06.562Z,99709.70
2022-10-10T22:05:13.920Z,99710.45
2022-10-10T22:15:20.111Z,99706.63
2022-10-10T22:25:25.807Z,99701.45
2022-10-10T22:35:31.552Z,99701.41
2022-10-10T22:45:37.231Z,99697.48
2022-10-10T22:55:42.914Z,99693.48
2022-10-10T23:05:48.886Z,99691.51
2022-10-10T23:15:54.537Z,99698.37
2022-10-10T23:26:00.284Z,99703.29
2022-10-10T23:36:08.967Z,99703.40
2022-10-10T23:46:15.088Z,99704.25
2022-10-10T23:56:20.711Z,99716.52
